Southern Sonoma County Latest

20 Stations

15 Minute Data
as of 9/2/26 6:22 AM PDT
Station Date Time Temp (°F) RH (%) Dew Pt (°F) Wind Spd (mph) Wind Dir (°) Wind Gust (mph) Latest Rain (In) Daily Rain (In) Daily Min Temp (°F) Daily Max Temp (°F)
Upper Rincon Valley 9/2/26 0615 57.0   3.1 95   2 55.6   3.6 2.9   2.8 SSE | 166 7.8   7.3 0.00 0.00 55.9   2.5 57.7   2.8
Lower Bennett Valley 9/2/26 0615 59.3   2.8 93   0 57.2   2.8 3.4   2.1 W | 260 5.9   1.1 0.00 0.00 52.5   2.3 59.4   2.4
Kenwood (Wildwood) 9/2/26 0615 57.2   0.3 95   9 55.8   3.0 1.4   0.0 SSE | 164 3.2   0.4 0.00 0.00 52.8   3.1 57.8   0.3
Crane Creek (Ranch 62) 9/2/26 0615 60.6   2.2 88   2 57.0   1.4 1.7   1.5 E | 89 3.9   2.5 0.00 0.00 57.2   2.5 61.3   2.8
Rohnert Park-West (Stony Point) 9/2/26 0615 59.6   1.1 95   1 58.1   0.7 2.2   2.1 SE | 137 6.1   6.5 0.00 0.00 54.7   1.4 59.6   1.1
Rice-Spivak Vineyard 9/2/26 0615 58.9   0.8 - - - - - - - 51.4   5.2 59.0   0.8
Cartograph Wines Base 9/2/26 0615 58.8   1.3 95   2 57.4   0.7 5.5   1.0 SE | 126 10.0   1.2 0.00 0.00 55.4   0.6 58.8   1.2
Cartograph Wines Remote 9/2/26 0615 59.2   1.0 - - - - - - - 54.6   1.8 59.2   0.9
Penngrove (Asellus) 9/2/26 0615 60.8   2.3 86   6 56.7   0.4 5.5   3.9 ESE | 110 9.9   4.4 0.00 0.00 54.2   2.7 61.2   2.5
Sonoma Valley (Bedrock) 9/2/26 0615 56.6   1.0 93   7 54.7   3.1 - - - 0.00 0.00 52.6   1.8 56.8   1.1
Sonoma-West (Arnold) 9/2/26 0615 58.0   1.5 93   9 55.9   1.2 0.6   3.2 NE | 44 2.0   4.6 0.00 0.00 52.8   1.9 58.3   1.8
Sonoma Valley HS 9/2/26 0615 58.0   0.4 96   4 57.0   0.6 1.2   0.6 NE | 52 2.6   0.0 0.00 0.00 54.5   0.8 58.1   1.9
Sonoma East (Bundschu01) 9/2/26 0615 57.6   0.5 91   1 54.9   0.1 1.7   0.6 NNW | 344 3.5   0.9 0.00 0.00 51.5   1.7 57.8   2.3
Sonoma-SE (Napoli) 9/2/26 0615 57.3   1.6 91   3 54.7   0.6 0.4   1.5 WSW | 249 2.7   3.0 0.00 0.00 51.0   5.8 57.5   2.4
Schellville (Sasaki) 2/7/26 1900 53.4   2.2 88   10 49.9   1.0 3.3   1.8 SW | 225 5.8   4.0 0.00 0.00 47.0   0.8 62.8   8.4
Petaluma (Ranch 10) 9/2/26 0615 59.3   0.3 91   2 56.7   0.7 0.0   2.8 N | 0 0.0   7.2 0.00 0.00 51.7   7.1 59.9   0.4
Carneros (Ranch 71) 9/2/26 0615 59.0   1.0 90   1 56.1   0.7 1.7   4.9 E | 96 3.1   6.2 0.00 0.00 56.9   0.2 60.1   1.5
Ricci Vineyards (Carneros) 9/2/26 0615 57.1   2.1 93   5 55.1   0.5 0.9   2.2 NNE | 26 2.2   4.1 0.00 0.00 52.0   6.0 57.4   2.2
Carneros Upper (Ranch 81) 9/2/26 0615 59.2   1.0 88   0 55.8   1.0 0.4   8.4 SW | 225 4.5   7.6 - - 57.4   0.5 59.9   1.4
Carneros Lower (Ranch 81) 9/2/26 0600 59.0   0.8 92   1 56.7   1.1 0.1   0.5 SSE | 159 1.2   2.6 0.00 0.00 52.0   5.1 59.0   1.0
Max     60.8 96 58.1 5.5 - 10.0 0.00 0.00 57.4 61.3
Avg     58.5 92 56.2 1.8 - 4.3 0.00 - - -
Min     56.6 86 54.7 0.0 - 0.0 0.00 0.00 51.0 56.8